Time;durP1;ratioP1;P1;durP2;ratioP2;P2;SDS_P1;SDS_P2;PMS_P1;PMS_P2;Temp;Humidity;BMP_temperature;BMP_pressure;BME280_temperature;BME280_humidity;BME280_pressure;Samples;Min_cycle;Max_cycle;Signal;HPM_P1;HPM_P2
2023/10/19 00:01:08;;;;;;;;;;;11.90;95.70;;;;;;5105710;28;19912;-70
2023/10/19 00:03:34;;;;;;;;;;;11.90;95.60;;;;;;5114179;28;19908;-70
2023/10/19 00:05:59;;;;;;;;;;;11.90;95.70;;;;;;5113799;28;20295;-70
2023/10/19 00:08:25;;;;;;;;;;;11.90;95.70;;;;;;5113954;28;19959;-70
2023/10/19 00:11:10;;;;;;;;;;;11.90;95.70;;;;;;5114325;27;20365;-70
2023/10/19 00:13:37;;;;;;;;;;;11.90;95.80;;;;;;5113663;28;19907;-70
2023/10/19 00:16:11;;;;;;;;;;;11.90;95.70;;;;;;5112826;28;19920;-70
2023/10/19 00:18:41;;;;;;;;;;;11.90;95.80;;;;;;5112398;28;20360;-70
2023/10/19 00:21:25;;;;;;;;;;;11.90;95.90;;;;;;5105655;28;19908;-70
2023/10/19 00:23:56;;;;;;;;;;;11.90;95.80;;;;;;5122514;27;19958;-70
2023/10/19 00:26:24;;;;;;;;;;;11.90;95.70;;;;;;5113608;28;20345;-70
2023/10/19 00:28:53;;;;;;;;;;;11.90;95.80;;;;;;5113722;28;19920;-70
2023/10/19 00:31:20;;;;;;;;;;;11.90;95.80;;;;;;5112460;28;19950;-70
2023/10/19 00:33:45;;;;;;;;;;;11.90;95.90;;;;;;5113325;28;19912;-70
2023/10/19 00:36:14;;;;;;;;;;;11.90;95.90;;;;;;5112264;28;20261;-70
2023/10/19 00:38:47;;;;;;;;;;;11.90;95.90;;;;;;5113474;28;19908;-70
2023/10/19 00:41:13;;;;;;;;;;;11.90;95.90;;;;;;5106476;28;19911;-70
2023/10/19 00:43:43;;;;;;;;;;;11.90;95.90;;;;;;5112027;28;19914;-70
2023/10/19 00:48:58;;;;;;;;;;;12.00;96.00;;;;;;5108753;28;19907;-70
2023/10/19 00:53:59;;;;;;;;;;;12.00;96.00;;;;;;5113235;27;19964;-70
2023/10/19 00:56:29;;;;;;;;;;;12.00;96.00;;;;;;5113070;28;19915;-70
2023/10/19 00:59:00;;;;;;;;;;;12.00;96.10;;;;;;5111661;28;19949;-70
2023/10/19 01:01:28;;;;;;;;;;;12.00;96.20;;;;;;5113123;28;20010;-70
2023/10/19 01:03:56;;;;;;;;;;;12.00;96.10;;;;;;5111263;28;19907;-70
2023/10/19 01:06:22;;;;;;;;;;;12.00;96.20;;;;;;5112561;28;20407;-70
2023/10/19 01:08:50;;;;;;;;;;;12.00;96.20;;;;;;5111307;28;20486;-70
2023/10/19 01:11:19;;;;;;;;;;;12.00;96.30;;;;;;5111766;28;19990;-70
2023/10/19 01:13:46;;;;;;;;;;;12.00;96.30;;;;;;5112250;28;19912;-70
2023/10/19 01:16:20;;;;;;;;;;;12.00;96.40;;;;;;5112541;28;20533;-70
2023/10/19 01:18:46;;;;;;;;;;;12.00;96.30;;;;;;5111167;28;19918;-70
2023/10/19 01:21:11;;;;;;;;;;;12.00;96.30;;;;;;5112870;28;20259;-70
2023/10/19 01:23:39;;;;;;;;;;;12.00;96.30;;;;;;5112594;28;19912;-70
2023/10/19 01:26:18;;;;;;;;;;;12.00;96.40;;;;;;5111230;28;20356;-70
2023/10/19 01:28:47;;;;;;;;;;;12.10;96.40;;;;;;5111629;28;19915;-70
2023/10/19 01:33:57;;;;;;;;;;;12.10;96.30;;;;;;5111894;28;19998;-70
2023/10/19 01:38:49;;;;;;;;;;;12.00;96.60;;;;;;5112187;28;20567;-70
2023/10/19 01:41:18;;;;;;;;;;;12.10;96.40;;;;;;5119405;27;20002;-70
2023/10/19 01:43:44;;;;;;;;;;;12.10;96.40;;;;;;5111804;28;20367;-70
2023/10/19 01:46:16;;;;;;;;;;;12.10;96.40;;;;;;5110676;28;19930;-70
2023/10/19 01:48:42;;;;;;;;;;;12.10;96.40;;;;;;5112143;28;19915;-70
2023/10/19 01:51:12;;;;;;;;;;;12.10;96.30;;;;;;5111920;28;19908;-70
2023/10/19 01:53:44;;;;;;;;;;;12.10;96.50;;;;;;5111842;28;20010;-70
2023/10/19 01:56:10;;;;;;;;;;;12.10;96.30;;;;;;5105198;28;19922;-70
2023/10/19 01:58:36;;;;;;;;;;;12.10;96.40;;;;;;5111400;28;19919;-70
2023/10/19 02:01:49;;;;;;;;;;;12.10;96.50;;;;;;5111393;28;20314;-70
2023/10/19 02:03:58;;;;;;;;;;;12.20;96.50;;;;;;5100769;28;19998;-70
2023/10/19 02:06:36;;;;;;;;;;;12.20;96.50;;;;;;5111450;28;19908;-70
2023/10/19 02:09:16;;;;;;;;;;;12.20;96.50;;;;;;5110273;28;20298;-70
2023/10/19 02:11:42;;;;;;;;;;;12.20;96.40;;;;;;5111912;28;19908;-70
2023/10/19 02:14:14;;;;;;;;;;;12.20;96.40;;;;;;5111573;28;19971;-70
2023/10/19 02:16:52;;;;;;;;;;;12.20;96.40;;;;;;5111337;28;19912;-70
2023/10/19 02:19:19;;;;;;;;;;;12.20;96.50;;;;;;5099732;27;19918;-70
2023/10/19 02:21:48;;;;;;;;;;;12.20;96.40;;;;;;5109528;28;19989;-70
2023/10/19 02:24:14;;;;;;;;;;;12.20;96.40;;;;;;5111460;28;20043;-70
2023/10/19 02:26:40;;;;;;;;;;;12.20;96.30;;;;;;5111263;28;19979;-70
2023/10/19 02:29:09;;;;;;;;;;;12.20;96.40;;;;;;5109783;28;19916;-70
2023/10/19 02:31:37;;;;;;;;;;;12.20;96.30;;;;;;5109908;28;20003;-70
2023/10/19 02:34:04;;;;;;;;;;;12.20;96.20;;;;;;5111000;28;20076;-70
2023/10/19 02:36:30;;;;;;;;;;;12.30;96.30;;;;;;5111252;28;19920;-70
2023/10/19 02:38:58;;;;;;;;;;;12.30;96.30;;;;;;5110699;28;19915;-70
2023/10/19 02:41:28;;;;;;;;;;;12.30;96.20;;;;;;5110942;28;19912;-70
2023/10/19 02:44:09;;;;;;;;;;;12.30;96.20;;;;;;5111281;28;20532;-70
2023/10/19 02:46:38;;;;;;;;;;;12.30;96.20;;;;;;5111304;28;19916;-70
2023/10/19 02:49:09;;;;;;;;;;;12.20;96.20;;;;;;5116085;27;20024;-70
2023/10/19 02:51:36;;;;;;;;;;;12.30;96.40;;;;;;5111155;28;19916;-70
2023/10/19 02:54:02;;;;;;;;;;;12.30;96.20;;;;;;5110877;28;20003;-70
2023/10/19 02:56:29;;;;;;;;;;;12.30;96.20;;;;;;5110924;28;19912;-70
2023/10/19 02:59:01;;;;;;;;;;;12.30;96.20;;;;;;5111138;28;20010;-70
2023/10/19 03:01:31;;;;;;;;;;;12.30;96.20;;;;;;5110908;28;19908;-70
2023/10/19 03:04:00;;;;;;;;;;;12.30;96.20;;;;;;5110754;28;19914;-70
2023/10/19 03:06:26;;;;;;;;;;;12.30;96.10;;;;;;5110044;28;20356;-70
2023/10/19 03:08:57;;;;;;;;;;;12.30;96.30;;;;;;5110064;28;20248;-70
2023/10/19 03:11:27;;;;;;;;;;;12.40;96.20;;;;;;5110784;28;19930;-70
2023/10/19 03:13:53;;;;;;;;;;;12.30;96.40;;;;;;5110340;28;19908;-70
2023/10/19 03:16:20;;;;;;;;;;;12.30;96.40;;;;;;5110722;28;20288;-70
2023/10/19 03:18:45;;;;;;;;;;;12.40;96.30;;;;;;5110341;28;20650;-70
2023/10/19 03:21:11;;;;;;;;;;;12.40;96.40;;;;;;5110814;28;19943;-70
2023/10/19 03:23:37;;;;;;;;;;;12.40;96.50;;;;;;5113658;28;19914;-70
2023/10/19 03:28:48;;;;;;;;;;;12.40;96.40;;;;;;5110212;28;19977;-70
2023/10/19 03:31:17;;;;;;;;;;;12.40;96.30;;;;;;5108916;28;19912;-70
2023/10/19 03:33:53;;;;;;;;;;;12.40;96.40;;;;;;5110141;28;19923;-70
2023/10/19 03:36:19;;;;;;;;;;;12.40;96.30;;;;;;5103205;28;19911;-70
2023/10/19 03:38:45;;;;;;;;;;;12.40;96.20;;;;;;5109674;28;20280;-70
2023/10/19 03:41:11;;;;;;;;;;;12.40;96.20;;;;;;5110385;28;19908;-70
2023/10/19 03:43:40;;;;;;;;;;;12.40;96.20;;;;;;5108604;28;19912;-70
2023/10/19 03:46:14;;;;;;;;;;;12.40;96.20;;;;;;5109724;28;20243;-70
2023/10/19 03:48:40;;;;;;;;;;;12.40;96.10;;;;;;5110213;28;19919;-70
2023/10/19 03:51:06;;;;;;;;;;;12.40;96.10;;;;;;5111117;28;20475;-70
2023/10/19 03:53:32;;;;;;;;;;;12.40;96.10;;;;;;5112507;28;19912;-70
2023/10/19 03:55:58;;;;;;;;;;;12.40;96.10;;;;;;5113350;27;19927;-70
2023/10/19 03:58:24;;;;;;;;;;;12.40;96.00;;;;;;5113537;28;19908;-70
2023/10/19 04:00:49;;;;;;;;;;;12.50;96.10;;;;;;5113589;28;19935;-70
2023/10/19 04:03:17;;;;;;;;;;;12.40;96.00;;;;;;5113573;28;19994;-70
2023/10/19 04:05:46;;;;;;;;;;;12.40;96.00;;;;;;5118780;27;19956;-70
2023/10/19 04:08:20;;;;;;;;;;;12.40;96.00;;;;;;5113556;28;19952;-70
2023/10/19 04:10:47;;;;;;;;;;;12.40;96.00;;;;;;5113205;27;19946;-70
2023/10/19 04:13:13;;;;;;;;;;;12.40;96.00;;;;;;5113474;27;20292;-70
2023/10/19 04:15:39;;;;;;;;;;;12.40;96.00;;;;;;5113306;28;20026;-70
2023/10/19 04:18:10;;;;;;;;;;;12.40;96.00;;;;;;5113588;28;19922;-70
2023/10/19 04:20:54;;;;;;;;;;;12.50;96.00;;;;;;5109184;28;19915;-70
2023/10/19 04:23:21;;;;;;;;;;;12.40;96.00;;;;;;5113186;28;19958;-70
2023/10/19 04:25:47;;;;;;;;;;;12.50;96.00;;;;;;5113447;28;19915;-70
2023/10/19 04:28:13;;;;;;;;;;;12.50;96.00;;;;;;5113210;28;19916;-70
2023/10/19 04:30:39;;;;;;;;;;;12.40;96.00;;;;;;5113400;27;19947;-70
2023/10/19 04:33:09;;;;;;;;;;;12.50;96.00;;;;;;5112802;28;20007;-70
2023/10/19 04:35:37;;;;;;;;;;;12.40;96.00;;;;;;5111480;28;19912;-70
2023/10/19 04:38:06;;;;;;;;;;;12.50;96.00;;;;;;5113055;28;19965;-70
2023/10/19 04:40:31;;;;;;;;;;;12.40;96.00;;;;;;5111963;28;20256;-70
2023/10/19 04:42:58;;;;;;;;;;;12.40;96.00;;;;;;5112256;28;19919;-70
2023/10/19 04:45:23;;;;;;;;;;;12.50;96.00;;;;;;5112510;27;19911;-70
2023/10/19 04:47:52;;;;;;;;;;;12.40;96.00;;;;;;5112743;27;19914;-70
2023/10/19 04:50:18;;;;;;;;;;;12.40;96.00;;;;;;5112541;28;20358;-70
2023/10/19 04:52:44;;;;;;;;;;;12.50;96.00;;;;;;5112381;28;19986;-70
2023/10/19 04:55:09;;;;;;;;;;;12.50;96.00;;;;;;5111105;28;19916;-70
2023/10/19 04:57:35;;;;;;;;;;;12.40;96.00;;;;;;5111046;28;19957;-70
2023/10/19 05:00:01;;;;;;;;;;;12.40;96.00;;;;;;5102593;28;19912;-70
2023/10/19 05:02:27;;;;;;;;;;;12.50;96.00;;;;;;5111454;28;19916;-70
2023/10/19 05:04:52;;;;;;;;;;;12.50;96.00;;;;;;5111018;27;20106;-70
2023/10/19 05:07:18;;;;;;;;;;;12.50;96.00;;;;;;5112490;28;19939;-70
2023/10/19 05:09:43;;;;;;;;;;;12.40;96.00;;;;;;5112395;28;19924;-70
2023/10/19 05:12:09;;;;;;;;;;;12.50;96.00;;;;;;5112183;28;20799;-70
2023/10/19 05:14:38;;;;;;;;;;;12.50;96.00;;;;;;5111969;28;19912;-70
2023/10/19 05:17:04;;;;;;;;;;;12.50;96.00;;;;;;5110476;28;20026;-70
2023/10/19 05:19:33;;;;;;;;;;;12.50;96.00;;;;;;5113127;27;19982;-70
2023/10/19 05:21:59;;;;;;;;;;;12.50;96.00;;;;;;5111296;28;20018;-70
2023/10/19 05:24:25;;;;;;;;;;;12.50;96.00;;;;;;5111961;27;19916;-70
2023/10/19 05:26:53;;;;;;;;;;;12.50;96.00;;;;;;5109966;28;20365;-70
2023/10/19 05:29:19;;;;;;;;;;;12.50;96.00;;;;;;5111945;28;19912;-70
2023/10/19 05:31:45;;;;;;;;;;;12.50;95.90;;;;;;5110172;28;19911;-70
2023/10/19 05:34:10;;;;;;;;;;;12.50;96.00;;;;;;5111564;28;19908;-70
2023/10/19 05:36:36;;;;;;;;;;;12.50;96.00;;;;;;5111544;28;19916;-70
2023/10/19 05:39:03;;;;;;;;;;;12.50;96.00;;;;;;5109837;28;20352;-70
2023/10/19 05:41:31;;;;;;;;;;;12.50;96.00;;;;;;5111748;28;20376;-70
2023/10/19 05:43:57;;;;;;;;;;;12.50;96.00;;;;;;5111443;28;20332;-70
2023/10/19 05:46:24;;;;;;;;;;;12.50;96.00;;;;;;5106461;28;19912;-70
2023/10/19 05:48:50;;;;;;;;;;;12.50;96.00;;;;;;5113576;27;20007;-70
2023/10/19 05:51:17;;;;;;;;;;;12.40;96.00;;;;;;5110061;28;19908;-70
2023/10/19 05:53:44;;;;;;;;;;;12.50;96.00;;;;;;5111527;28;19915;-70
2023/10/19 05:56:10;;;;;;;;;;;12.50;96.10;;;;;;5111161;28;20462;-70
2023/10/19 05:58:36;;;;;;;;;;;12.40;96.00;;;;;;5111178;27;19918;-70
2023/10/19 06:01:01;;;;;;;;;;;12.50;96.10;;;;;;5117619;27;20268;-70
2023/10/19 06:03:27;;;;;;;;;;;12.40;96.10;;;;;;5132243;27;20641;-70
2023/10/19 06:05:56;;;;;;;;;;;12.40;96.10;;;;;;5106181;28;20253;-70
2023/10/19 06:08:25;;;;;;;;;;;12.40;96.10;;;;;;5111673;28;19964;-70
2023/10/19 06:10:53;;;;;;;;;;;12.40;96.10;;;;;;5111045;28;19980;-70
2023/10/19 06:13:19;;;;;;;;;;;12.40;96.10;;;;;;5111281;28;19908;-70
2023/10/19 06:15:44;;;;;;;;;;;12.40;96.10;;;;;;5111228;28;20398;-70
2023/10/19 06:18:10;;;;;;;;;;;12.40;96.40;;;;;;5109569;28;19907;-70
2023/10/19 06:20:36;;;;;;;;;;;12.40;96.10;;;;;;5111508;28;19919;-70
2023/10/19 06:23:05;;;;;;;;;;;12.40;96.10;;;;;;5110796;28;19908;-70
2023/10/19 06:25:31;;;;;;;;;;;12.40;96.20;;;;;;5111238;28;19985;-70
2023/10/19 06:27:57;;;;;;;;;;;12.40;96.10;;;;;;5104861;28;19963;-70
2023/10/19 06:30:23;;;;;;;;;;;12.40;96.10;;;;;;5095032;28;19951;-70
2023/10/19 06:32:53;;;;;;;;;;;12.40;96.20;;;;;;5110172;28;19908;-70
2023/10/19 06:35:20;;;;;;;;;;;12.40;96.10;;;;;;5110344;28;20029;-70
2023/10/19 06:37:45;;;;;;;;;;;12.40;96.10;;;;;;5109988;28;19912;-70
2023/10/19 06:40:12;;;;;;;;;;;12.40;96.20;;;;;;5108820;28;19957;-70
2023/10/19 06:42:38;;;;;;;;;;;12.40;96.20;;;;;;5109065;28;19911;-70
2023/10/19 06:45:04;;;;;;;;;;;12.40;96.20;;;;;;5108626;28;20268;-70
2023/10/19 06:47:30;;;;;;;;;;;12.40;96.20;;;;;;5109657;28;19969;-70
2023/10/19 06:49:55;;;;;;;;;;;12.40;96.10;;;;;;5104314;28;19918;-70
2023/10/19 06:52:21;;;;;;;;;;;12.40;96.10;;;;;;5105247;28;19908;-70
2023/10/19 06:54:47;;;;;;;;;;;12.40;96.10;;;;;;5106237;28;20002;-70
2023/10/19 06:57:12;;;;;;;;;;;12.40;96.10;;;;;;5101385;28;19962;-70
2023/10/19 06:59:38;;;;;;;;;;;12.40;96.10;;;;;;5095438;28;19947;-70
2023/10/19 07:02:04;;;;;;;;;;;12.50;96.00;;;;;;5109442;28;20037;-70
2023/10/19 07:04:30;;;;;;;;;;;12.50;96.10;;;;;;5109503;28;20397;-70
2023/10/19 07:06:56;;;;;;;;;;;12.40;96.00;;;;;;5108023;28;20429;-70
2023/10/19 07:09:22;;;;;;;;;;;12.40;96.00;;;;;;5109949;28;19908;-70
2023/10/19 07:11:52;;;;;;;;;;;12.50;96.00;;;;;;5109441;28;20276;-70
2023/10/19 07:14:19;;;;;;;;;;;12.50;96.00;;;;;;5108415;28;20010;-70
2023/10/19 07:16:44;;;;;;;;;;;12.50;96.00;;;;;;5103780;28;19922;-70
2023/10/19 07:19:10;;;;;;;;;;;12.50;96.00;;;;;;5114530;27;19908;-70
2023/10/19 07:21:37;;;;;;;;;;;12.50;95.90;;;;;;5108498;28;19908;-70
2023/10/19 07:24:05;;;;;;;;;;;12.50;95.90;;;;;;5107324;28;19914;-70
2023/10/19 07:26:33;;;;;;;;;;;12.50;95.90;;;;;;5109705;28;19955;-70
2023/10/19 07:29:01;;;;;;;;;;;12.50;95.90;;;;;;5108151;28;19916;-70
2023/10/19 07:31:27;;;;;;;;;;;12.50;95.90;;;;;;5113872;27;19908;-70
2023/10/19 07:33:55;;;;;;;;;;;12.50;96.00;;;;;;5107750;28;19908;-70
2023/10/19 07:36:21;;;;;;;;;;;12.60;96.00;;;;;;5112940;27;20408;-70
2023/10/19 07:38:47;;;;;;;;;;;12.60;96.00;;;;;;5113095;28;20003;-70
2023/10/19 07:41:13;;;;;;;;;;;12.50;95.90;;;;;;5104736;28;20368;-70
2023/10/19 07:43:39;;;;;;;;;;;12.60;96.00;;;;;;5111770;28;19918;-70
2023/10/19 07:46:04;;;;;;;;;;;12.60;95.90;;;;;;5112827;28;19965;-70
2023/10/19 07:48:30;;;;;;;;;;;12.60;95.90;;;;;;5114635;27;19915;-70
2023/10/19 07:50:55;;;;;;;;;;;12.60;95.90;;;;;;5119581;27;20018;-70
2023/10/19 07:53:21;;;;;;;;;;;12.60;95.90;;;;;;5112537;28;20401;-70
2023/10/19 07:55:47;;;;;;;;;;;12.70;96.00;;;;;;5112430;28;19912;-70
2023/10/19 07:58:12;;;;;;;;;;;12.70;95.90;;;;;;5107412;28;19911;-70
2023/10/19 08:00:38;;;;;;;;;;;12.70;95.90;;;;;;5112980;28;20400;-70
2023/10/19 08:03:04;;;;;;;;;;;12.70;95.90;;;;;;5112522;27;19911;-70
2023/10/19 08:05:30;;;;;;;;;;;12.70;95.90;;;;;;5110788;28;19966;-70
2023/10/19 08:07:58;;;;;;;;;;;12.70;95.90;;;;;;5112230;28;19947;-70
2023/10/19 08:10:25;;;;;;;;;;;12.70;95.80;;;;;;5112929;27;20391;-70
2023/10/19 08:12:51;;;;;;;;;;;12.70;95.80;;;;;;5111909;27;20023;-70
2023/10/19 08:15:18;;;;;;;;;;;12.80;95.80;;;;;;5108341;28;19951;-70
2023/10/19 08:17:45;;;;;;;;;;;12.80;95.80;;;;;;5107923;28;20006;-70
2023/10/19 08:20:36;;;;;;;;;;;12.80;95.90;;;;;;5104866;28;19912;-70
2023/10/19 08:22:57;;;;;;;;;;;12.80;95.90;;;;;;5102511;28;20215;-70
2023/10/19 08:25:23;;;;;;;;;;;12.80;95.80;;;;;;5105599;28;19919;-70
2023/10/19 08:27:50;;;;;;;;;;;12.90;95.90;;;;;;5103058;28;19924;-70
2023/10/19 08:30:20;;;;;;;;;;;12.90;95.80;;;;;;5111934;28;20368;-69
2023/10/19 08:32:47;;;;;;;;;;;12.90;96.00;;;;;;5110349;28;19935;-69
2023/10/19 08:35:20;;;;;;;;;;;12.90;95.90;;;;;;5102911;28;19918;-69
2023/10/19 08:37:46;;;;;;;;;;;13.00;95.80;;;;;;5110307;27;19947;-69
2023/10/19 08:40:16;;;;;;;;;;;13.00;96.00;;;;;;5111099;28;19947;-69
2023/10/19 08:42:42;;;;;;;;;;;13.00;95.80;;;;;;5111579;28;19950;-70
2023/10/19 09:59:31;;;;;;;;;;;14.10;95.40;;;;;;5089076;27;19926;-70
2023/10/19 10:02:14;;;;;;;;;;;14.10;95.30;;;;;;5106110;27;19985;-70
2023/10/19 10:04:40;;;;;;;;;;;14.20;95.60;;;;;;5097363;28;19909;-70
2023/10/19 10:07:07;;;;;;;;;;;14.20;95.70;;;;;;5124496;27;19913;-70
2023/10/19 10:09:40;;;;;;;;;;;14.30;95.90;;;;;;5108925;28;19908;-70
2023/10/19 10:12:35;;;;;;;;;;;14.30;95.60;;;;;;5110362;28;19962;-70
2023/10/19 10:15:07;;;;;;;;;;;14.30;95.70;;;;;;5085180;28;19971;-70
2023/10/19 10:17:37;;;;;;;;;;;14.30;95.50;;;;;;5102872;28;20395;-70
2023/10/19 10:20:28;;;;;;;;;;;14.30;95.30;;;;;;5107778;28;19908;-70
2023/10/19 10:23:16;;;;;;;;;;;14.30;95.60;;;;;;5103760;27;19918;-70
2023/10/19 10:25:48;;;;;;;;;;;14.40;95.50;;;;;;5104366;28;20376;-70
2023/10/19 10:28:14;;;;;;;;;;;14.50;95.50;;;;;;5103712;27;20620;-70
2023/10/19 10:31:05;;;;;;;;;;;14.60;95.70;;;;;;5114350;27;19916;-70
2023/10/19 10:33:38;;;;;;;;;;;14.60;95.90;;;;;;5108423;27;19911;-70
2023/10/19 10:36:06;;;;;;;;;;;14.70;95.40;;;;;;5100151;27;19916;-70
2023/10/19 10:38:37;;;;;;;;;;;14.80;95.30;;;;;;5116039;27;19908;-70
2023/10/19 10:41:03;;;;;;;;;;;14.80;95.20;;;;;;5106500;28;19915;-70
2023/10/19 10:43:28;;;;;;;;;;;14.90;95.40;;;;;;5105723;28;19908;-70
2023/10/19 10:46:04;;;;;;;;;;;14.90;95.50;;;;;;5103212;28;19914;-70
2023/10/19 10:48:30;;;;;;;;;;;14.90;95.20;;;;;;5102164;28;19918;-70
2023/10/19 10:50:55;;;;;;;;;;;15.00;95.20;;;;;;5101135;28;19915;-70
2023/10/19 10:53:24;;;;;;;;;;;15.00;95.20;;;;;;5108387;28;19961;-70
2023/10/19 10:55:50;;;;;;;;;;;15.10;95.10;;;;;;5101887;28;19912;-70
2023/10/19 10:58:18;;;;;;;;;;;15.20;94.90;;;;;;5108015;27;19973;-70
2023/10/19 11:00:46;;;;;;;;;;;15.30;95.00;;;;;;5104485;28;20384;-70
2023/10/19 11:03:13;;;;;;;;;;;15.20;95.10;;;;;;5110313;27;20393;-70
2023/10/19 11:05:39;;;;;;;;;;;15.30;95.00;;;;;;5107013;28;19931;-70
2023/10/19 11:08:09;;;;;;;;;;;15.30;95.20;;;;;;5108579;28;20372;-70
2023/10/19 11:10:36;;;;;;;;;;;15.30;95.30;;;;;;5103660;28;20863;-70
2023/10/19 11:13:09;;;;;;;;;;;15.40;95.30;;;;;;5106686;28;19961;-70
2023/10/19 11:15:35;;;;;;;;;;;15.40;95.20;;;;;;5113722;27;19915;-70
2023/10/19 11:18:01;;;;;;;;;;;15.40;95.00;;;;;;5111756;27;20060;-70
2023/10/19 11:20:27;;;;;;;;;;;15.40;95.10;;;;;;5098980;28;20065;-69
2023/10/19 11:22:55;;;;;;;;;;;15.40;95.10;;;;;;5104491;28;19970;-69
2023/10/19 11:25:27;;;;;;;;;;;15.50;95.10;;;;;;5109378;28;19912;-69
2023/10/19 11:28:00;;;;;;;;;;;15.50;95.20;;;;;;5108839;28;19912;-69
2023/10/19 11:30:31;;;;;;;;;;;15.50;95.20;;;;;;5106013;28;19912;-69
2023/10/19 11:32:57;;;;;;;;;;;15.60;95.60;;;;;;5108244;28;19912;-69
2023/10/19 11:35:23;;;;;;;;;;;15.60;95.20;;;;;;5107129;27;19911;-70
2023/10/19 11:37:52;;;;;;;;;;;15.60;95.20;;;;;;5105761;28;19912;-69
2023/10/19 11:40:19;;;;;;;;;;;15.60;95.20;;;;;;5089654;28;19993;-69
2023/10/19 11:42:44;;;;;;;;;;;15.70;95.20;;;;;;5104991;28;19912;-69
2023/10/19 11:45:11;;;;;;;;;;;15.70;95.20;;;;;;5106612;28;19959;-69
2023/10/19 11:47:37;;;;;;;;;;;15.70;95.10;;;;;;5108573;28;19908;-69
2023/10/19 11:50:03;;;;;;;;;;;15.70;95.10;;;;;;5092265;28;19916;-69
2023/10/19 11:52:30;;;;;;;;;;;15.80;95.20;;;;;;5116526;27;19935;-70
2023/10/19 11:54:55;;;;;;;;;;;15.90;95.00;;;;;;5098284;28;19973;-70
2023/10/19 11:57:21;;;;;;;;;;;15.90;95.00;;;;;;5107857;28;19969;-70
2023/10/19 11:59:52;;;;;;;;;;;16.00;94.90;;;;;;5108378;28;19919;-70
2023/10/19 12:02:21;;;;;;;;;;;16.00;94.90;;;;;;5105436;28;19911;-70
2023/10/19 12:04:46;;;;;;;;;;;16.00;95.10;;;;;;5096306;28;19948;-70
2023/10/19 12:07:12;;;;;;;;;;;16.00;95.00;;;;;;5095930;28;20004;-70
2023/10/19 12:09:41;;;;;;;;;;;16.00;95.00;;;;;;5096177;28;19912;-70
2023/10/19 12:12:09;;;;;;;;;;;16.10;95.20;;;;;;5098723;28;19931;-70
2023/10/19 12:14:36;;;;;;;;;;;16.10;95.00;;;;;;5111687;27;19912;-70
2023/10/19 12:17:02;;;;;;;;;;;16.20;95.20;;;;;;5094263;28;19919;-70
2023/10/19 12:19:30;;;;;;;;;;;16.20;95.00;;;;;;5118981;27;19908;-70
2023/10/19 12:21:56;;;;;;;;;;;16.20;95.20;;;;;;5103456;27;19907;-70
2023/10/19 12:24:23;;;;;;;;;;;16.20;95.20;;;;;;5100142;28;19908;-70
2023/10/19 12:26:48;;;;;;;;;;;16.30;94.90;;;;;;5111222;27;19965;-70
2023/10/19 12:29:17;;;;;;;;;;;16.30;95.00;;;;;;5102916;27;19915;-70
2023/10/19 12:31:42;;;;;;;;;;;16.30;95.00;;;;;;5109613;28;19916;-70
2023/10/19 12:34:08;;;;;;;;;;;16.30;95.00;;;;;;5109990;28;19934;-70
2023/10/19 12:36:35;;;;;;;;;;;16.30;95.00;;;;;;5108637;28;19923;-70
2023/10/19 12:39:00;;;;;;;;;;;16.30;95.00;;;;;;5111042;28;19915;-70
2023/10/19 12:41:27;;;;;;;;;;;16.30;94.90;;;;;;5108864;28;20397;-70
2023/10/19 12:43:57;;;;;;;;;;;16.40;95.20;;;;;;5111731;28;19955;-70
2023/10/19 12:46:24;;;;;;;;;;;16.40;94.90;;;;;;5106051;28;19935;-70
2023/10/19 12:48:55;;;;;;;;;;;16.40;95.20;;;;;;5111575;28;19907;-70
2023/10/19 12:51:24;;;;;;;;;;;16.40;95.10;;;;;;5105826;28;19912;-70
2023/10/19 12:53:53;;;;;;;;;;;16.40;95.20;;;;;;5109755;28;19912;-70
2023/10/19 12:56:19;;;;;;;;;;;16.40;95.20;;;;;;5102913;28;19916;-70
2023/10/19 12:58:44;;;;;;;;;;;16.40;95.20;;;;;;5103061;28;19916;-70
2023/10/19 13:01:19;;;;;;;;;;;16.40;95.10;;;;;;5103447;28;19916;-70
2023/10/19 13:03:45;;;;;;;;;;;16.30;95.20;;;;;;5103089;28;19994;-70
2023/10/19 13:06:14;;;;;;;;;;;16.30;95.60;;;;;;5110384;28;20023;-70
2023/10/19 13:08:40;;;;;;;;;;;16.30;95.70;;;;;;5111552;28;19954;-70
2023/10/19 13:11:10;;;;;;;;;;;16.30;95.70;;;;;;5111538;28;19912;-70
2023/10/19 13:13:39;;;;;;;;;;;16.30;95.90;;;;;;5111481;28;19919;-70
2023/10/19 13:16:09;;;;;;;;;;;16.30;96.10;;;;;;5111288;28;19911;-70
2023/10/19 13:18:35;;;;;;;;;;;16.20;96.20;;;;;;5106579;28;20387;-70
2023/10/19 13:21:04;;;;;;;;;;;16.30;96.30;;;;;;5107976;28;19935;-70
2023/10/19 13:23:33;;;;;;;;;;;16.20;96.40;;;;;;5107144;27;19907;-70
2023/10/19 13:26:08;;;;;;;;;;;16.20;96.60;;;;;;5123474;27;19911;-70
2023/10/19 13:28:35;;;;;;;;;;;16.20;96.60;;;;;;5111236;28;19987;-70
2023/10/19 13:31:00;;;;;;;;;;;16.20;96.70;;;;;;5111454;28;19960;-70
2023/10/19 13:33:26;;;;;;;;;;;16.20;96.90;;;;;;5103279;28;19908;-70
2023/10/19 13:35:52;;;;;;;;;;;16.20;96.90;;;;;;5111498;28;19912;-70
2023/10/19 13:38:19;;;;;;;;;;;16.10;97.00;;;;;;5115303;27;19911;-70
2023/10/19 13:40:45;;;;;;;;;;;16.10;97.00;;;;;;5115875;27;19986;-70
2023/10/19 13:43:17;;;;;;;;;;;16.10;97.20;;;;;;5110712;28;20147;-70
2023/10/19 13:45:43;;;;;;;;;;;16.10;97.10;;;;;;5111259;28;19908;-70
2023/10/19 13:48:10;;;;;;;;;;;16.10;97.10;;;;;;5111174;28;19943;-70
2023/10/19 13:50:40;;;;;;;;;;;16.10;97.00;;;;;;5111418;28;19954;-70
2023/10/19 13:53:05;;;;;;;;;;;16.10;97.00;;;;;;5110755;28;19915;-70
2023/10/19 13:55:31;;;;;;;;;;;16.00;97.00;;;;;;5111283;28;19923;-70
2023/10/19 13:57:57;;;;;;;;;;;16.10;97.10;;;;;;5111155;28;19912;-70
2023/10/19 14:00:24;;;;;;;;;;;16.00;97.10;;;;;;5111226;28;19916;-70
2023/10/19 14:02:50;;;;;;;;;;;16.00;97.30;;;;;;5111545;28;20331;-70
2023/10/19 14:05:16;;;;;;;;;;;16.00;97.20;;;;;;5110546;28;19911;-70
2023/10/19 14:07:43;;;;;;;;;;;16.00;97.20;;;;;;5110196;28;20250;-70
2023/10/19 14:10:12;;;;;;;;;;;16.00;97.10;;;;;;5111907;28;19974;-70
2023/10/19 14:12:41;;;;;;;;;;;16.00;97.20;;;;;;5111161;28;19943;-70
2023/10/19 14:15:08;;;;;;;;;;;16.00;97.30;;;;;;5109477;28;19919;-70
2023/10/19 14:17:34;;;;;;;;;;;16.00;97.30;;;;;;5104103;28;19912;-70
2023/10/19 14:19:59;;;;;;;;;;;16.00;97.40;;;;;;5111375;28;19911;-70
2023/10/19 14:22:25;;;;;;;;;;;16.00;97.30;;;;;;5110917;28;19923;-70
2023/10/19 14:24:50;;;;;;;;;;;16.00;97.30;;;;;;5111325;28;20414;-70
2023/10/19 14:27:16;;;;;;;;;;;16.00;97.30;;;;;;5111175;28;20395;-70
2023/10/19 14:29:41;;;;;;;;;;;16.00;97.20;;;;;;5111582;28;19939;-70
2023/10/19 14:32:07;;;;;;;;;;;15.90;97.30;;;;;;5109413;28;19981;-70
2023/10/19 14:34:32;;;;;;;;;;;15.90;97.20;;;;;;5111269;28;20345;-70
2023/10/19 14:36:58;;;;;;;;;;;15.90;97.30;;;;;;5110275;28;20261;-70
2023/10/19 14:39:24;;;;;;;;;;;15.90;97.30;;;;;;5110700;28;19912;-70
2023/10/19 14:41:50;;;;;;;;;;;15.90;97.30;;;;;;5117748;27;20340;-70
2023/10/19 14:44:15;;;;;;;;;;;15.90;97.10;;;;;;5112610;27;19935;-70
2023/10/19 14:46:41;;;;;;;;;;;15.90;97.10;;;;;;5109520;28;19914;-70
2023/10/19 14:49:06;;;;;;;;;;;15.90;97.10;;;;;;5110921;28;19912;-70
2023/10/19 14:51:32;;;;;;;;;;;15.90;97.00;;;;;;5110870;28;20379;-70
2023/10/19 14:53:57;;;;;;;;;;;15.90;97.10;;;;;;5108749;28;19908;-70
2023/10/19 14:56:23;;;;;;;;;;;15.90;97.10;;;;;;5109347;28;19920;-70
2023/10/19 14:58:48;;;;;;;;;;;15.90;97.20;;;;;;5110489;28;19919;-70
2023/10/19 15:01:21;;;;;;;;;;;15.80;97.10;;;;;;5109958;28;19908;-70
2023/10/19 15:03:46;;;;;;;;;;;15.80;97.20;;;;;;5110471;28;19912;-70
2023/10/19 15:06:14;;;;;;;;;;;15.80;97.20;;;;;;5110342;28;19987;-70
2023/10/19 15:08:39;;;;;;;;;;;15.80;97.10;;;;;;5110365;28;19919;-70
2023/10/19 15:11:05;;;;;;;;;;;15.80;97.10;;;;;;5110442;28;19912;-70
2023/10/19 15:13:30;;;;;;;;;;;15.80;97.20;;;;;;5110705;28;19908;-70
2023/10/19 15:15:56;;;;;;;;;;;15.80;97.20;;;;;;5110107;28;19965;-70
2023/10/19 15:18:22;;;;;;;;;;;15.80;97.20;;;;;;5111721;28;19961;-70
2023/10/19 15:20:47;;;;;;;;;;;15.80;97.20;;;;;;5113100;27;19961;-70
2023/10/19 15:23:13;;;;;;;;;;;15.80;97.20;;;;;;5110086;28;19911;-70
2023/10/19 15:25:39;;;;;;;;;;;15.70;97.10;;;;;;5110212;28;20509;-70
2023/10/19 15:28:05;;;;;;;;;;;15.70;97.10;;;;;;5110145;28;20353;-70
2023/10/19 15:30:31;;;;;;;;;;;15.70;97.00;;;;;;5109961;28;19961;-70
2023/10/19 15:32:56;;;;;;;;;;;15.70;97.10;;;;;;5109720;28;19907;-70
2023/10/19 15:35:23;;;;;;;;;;;15.70;97.10;;;;;;5109986;28;20006;-70
2023/10/19 15:37:49;;;;;;;;;;;15.70;97.10;;;;;;5104437;28;19912;-70
2023/10/19 15:40:15;;;;;;;;;;;15.70;97.10;;;;;;5100138;28;19915;-70
2023/10/19 15:42:42;;;;;;;;;;;15.60;97.10;;;;;;5108290;28;19908;-70
2023/10/19 15:45:11;;;;;;;;;;;15.60;97.10;;;;;;5109562;28;19912;-70
2023/10/19 15:47:37;;;;;;;;;;;15.60;97.10;;;;;;5107091;28;19922;-70